createdAt,value
2018-12-14T00:00:14.013Z,43.33
2018-12-14T00:05:18.497Z,39.17
2018-12-14T00:10:22.984Z,40.17
2018-12-14T00:15:27.502Z,33.90
2018-12-14T00:20:31.994Z,39.33
2018-12-14T00:25:36.705Z,32.03
2018-12-14T00:30:41.206Z,34.30
2018-12-14T00:35:45.739Z,29.47
2018-12-14T00:40:50.249Z,33.33
2018-12-14T00:45:54.750Z,29.63
2018-12-14T00:50:59.241Z,33.60
2018-12-14T00:56:03.741Z,34.97
2018-12-14T01:01:08.231Z,28.17
2018-12-14T01:06:13.658Z,35.10
2018-12-14T01:11:17.285Z,31.03
2018-12-14T01:16:21.765Z,28.40
2018-12-14T01:21:26.293Z,25.03
2018-12-14T01:26:30.797Z,29.53
2018-12-14T01:31:35.302Z,30.07
2018-12-14T01:36:39.778Z,30.33
2018-12-14T01:41:44.321Z,27.50
2018-12-14T01:46:48.843Z,27.60
2018-12-14T01:51:53.325Z,29.63
2018-12-14T01:56:57.935Z,29.53
2018-12-14T02:02:02.425Z,28.27
2018-12-14T02:07:07.007Z,27.53
2018-12-14T02:12:11.667Z,31.47
2018-12-14T02:17:16.074Z,32.33
2018-12-14T02:22:20.609Z,29.37
2018-12-14T02:27:25.109Z,33.87
2018-12-14T02:32:29.698Z,30.97
2018-12-14T02:37:34.221Z,31.90
2018-12-14T02:42:38.773Z,32.13
2018-12-14T02:47:43.260Z,33.17
2018-12-14T02:52:47.749Z,26.83
2018-12-14T02:57:52.244Z,37.70
2018-12-14T03:02:56.729Z,32.90
2018-12-14T03:08:01.249Z,31.60
2018-12-14T03:13:05.751Z,37.00
2018-12-14T03:18:10.310Z,36.13
2018-12-14T03:23:14.823Z,31.53
2018-12-14T03:28:19.322Z,35.93
2018-12-14T03:33:23.811Z,44.77
2018-12-14T03:38:28.299Z,34.90
2018-12-14T03:43:32.790Z,33.67
2018-12-14T03:48:37.287Z,32.03
2018-12-14T03:53:41.777Z,34.30
2018-12-14T03:58:46.303Z,35.83
2018-12-14T04:03:50.789Z,42.00
2018-12-14T04:08:55.294Z,36.90
2018-12-14T04:13:59.796Z,48.03
2018-12-14T04:19:04.305Z,40.83
2018-12-14T04:24:08.827Z,41.33
2018-12-14T04:29:13.342Z,42.30
2018-12-14T04:34:17.839Z,32.37
2018-12-14T04:39:22.405Z,35.00
2018-12-14T04:44:26.934Z,33.43
2018-12-14T04:49:31.454Z,44.43
2018-12-14T04:54:35.943Z,40.33
2018-12-14T04:59:40.438Z,36.93
2018-12-14T05:04:44.994Z,35.57
2018-12-14T05:09:49.545Z,42.50
2018-12-14T05:14:54.041Z,38.47
2018-12-14T05:19:58.566Z,39.70
2018-12-14T05:25:03.251Z,37.37
2018-12-14T05:30:08.367Z,38.17
2018-12-14T05:35:12.833Z,44.27
2018-12-14T05:40:17.429Z,37.13
2018-12-14T05:45:21.924Z,37.23
2018-12-14T05:50:26.425Z,43.53
2018-12-14T05:55:31.021Z,41.47
2018-12-14T06:00:35.502Z,42.67
2018-12-14T06:05:40.104Z,45.53
2018-12-14T06:10:44.638Z,41.30
2018-12-14T06:15:49.201Z,49.17
2018-12-14T06:20:53.697Z,45.77
2018-12-14T06:25:58.236Z,42.07
2018-12-14T06:31:02.712Z,56.13
2018-12-14T06:37:31.682Z,46.50
2018-12-14T06:42:36.169Z,46.03
2018-12-14T06:47:40.674Z,48.40
2018-12-14T06:52:45.169Z,45.07
2018-12-14T06:57:56.258Z,43.40
2018-12-14T07:03:00.738Z,49.43
2018-12-14T07:08:05.558Z,49.93
2018-12-14T07:13:10.114Z,52.90
2018-12-14T07:18:14.608Z,44.27
2018-12-14T07:23:19.128Z,46.50
2018-12-14T07:28:23.614Z,54.17
2018-12-14T07:33:28.097Z,47.20
2018-12-14T07:38:32.572Z,41.33
2018-12-14T07:43:37.053Z,47.43
2018-12-14T07:48:41.533Z,41.70
2018-12-14T07:53:46.161Z,51.27
2018-12-14T07:58:50.709Z,43.13
2018-12-14T08:03:55.193Z,47.50
2018-12-14T08:08:59.687Z,44.20
2018-12-14T08:14:04.279Z,51.03
2018-12-14T08:19:09.453Z,36.93
2018-12-14T08:24:13.970Z,36.27
2018-12-14T08:29:18.520Z,40.60
2018-12-14T08:34:23.041Z,33.20
2018-12-14T08:39:27.582Z,33.60
2018-12-14T08:44:32.087Z,34.83
2018-12-14T08:49:36.594Z,34.23
2018-12-14T08:54:41.072Z,36.33
2018-12-14T08:59:45.623Z,37.97
2018-12-14T09:04:51.246Z,35.10
2018-12-14T09:09:55.842Z,34.20
2018-12-14T09:15:00.430Z,34.10
2018-12-14T09:20:05.005Z,27.13
2018-12-14T09:25:11.299Z,35.63
2018-12-14T09:30:15.877Z,34.37
2018-12-14T09:35:20.449Z,33.07
2018-12-14T09:40:25.066Z,27.97
2018-12-14T09:45:29.549Z,28.03
2018-12-14T09:50:34.037Z,24.70
2018-12-14T09:55:38.534Z,27.43
2018-12-14T10:00:43.042Z,26.03
2018-12-14T10:05:47.541Z,30.43
2018-12-14T10:10:52.082Z,28.77
2018-12-14T10:15:56.575Z,30.13
2018-12-14T10:21:01.131Z,28.20
2018-12-14T10:26:05.695Z,29.43
2018-12-14T10:31:10.173Z,28.70
2018-12-14T10:36:14.758Z,26.27
2018-12-14T10:41:19.270Z,25.83
2018-12-14T10:46:23.998Z,26.40
2018-12-14T10:51:28.493Z,21.43
2018-12-14T10:56:32.975Z,27.03
2018-12-14T11:01:42.945Z,22.33
2018-12-14T11:06:47.545Z,21.70
2018-12-14T11:11:52.369Z,18.23
2018-12-14T11:16:56.858Z,19.17
2018-12-14T11:22:01.405Z,21.17
2018-12-14T11:27:05.902Z,25.77
2018-12-14T11:32:10.381Z,23.17
2018-12-14T11:37:14.913Z,31.10
2018-12-14T11:42:19.565Z,29.93
2018-12-14T11:47:24.052Z,26.80
2018-12-14T11:52:28.617Z,33.10
2018-12-14T11:57:33.096Z,30.53
2018-12-14T12:02:42.886Z,28.07
2018-12-14T12:07:42.242Z,31.60
2018-12-14T12:12:46.801Z,29.50
2018-12-14T12:17:51.317Z,28.47
2018-12-14T12:22:56.467Z,35.93
2018-12-14T12:28:01.003Z,37.93
2018-12-14T12:33:05.480Z,29.60
2018-12-14T12:38:09.969Z,25.33
2018-12-14T12:43:14.537Z,28.87
2018-12-14T12:48:19.053Z,28.70
2018-12-14T12:53:23.551Z,31.73
2018-12-14T12:58:28.038Z,36.97
2018-12-14T13:03:32.538Z,33.87
2018-12-14T13:08:37.046Z,39.43
2018-12-14T13:13:41.529Z,44.53
2018-12-14T13:18:46.109Z,39.03
2018-12-14T13:23:50.597Z,43.40
2018-12-14T13:28:55.085Z,36.57
2018-12-14T13:33:59.574Z,41.70
2018-12-14T13:39:05.141Z,42.23
2018-12-14T13:44:09.658Z,41.87
2018-12-14T13:49:14.133Z,45.47
2018-12-14T13:54:18.613Z,46.00
2018-12-14T13:59:23.117Z,42.53
2018-12-14T14:04:27.610Z,45.37
2018-12-14T14:09:32.109Z,47.47
2018-12-14T14:14:36.597Z,47.47
2018-12-14T14:19:41.105Z,40.10
2018-12-14T14:24:45.655Z,47.00
2018-12-14T14:29:50.145Z,45.50
2018-12-14T14:34:54.631Z,47.53
2018-12-14T14:39:59.117Z,47.40
2018-12-14T14:45:03.606Z,52.10
2018-12-14T14:50:09.817Z,54.37
2018-12-14T14:55:14.305Z,49.73
2018-12-14T15:00:18.785Z,48.37
2018-12-14T15:05:23.267Z,53.17
2018-12-14T15:10:27.753Z,56.70
2018-12-14T15:15:32.248Z,55.27
2018-12-14T15:20:36.733Z,52.20
2018-12-14T15:25:41.241Z,58.80
2018-12-14T15:30:45.857Z,51.13
2018-12-14T15:35:50.349Z,53.90
2018-12-14T15:40:54.925Z,47.93
2018-12-14T15:45:59.551Z,56.83
2018-12-14T15:51:04.165Z,58.13
2018-12-14T15:56:08.726Z,56.43
2018-12-14T16:01:13.241Z,61.50
2018-12-14T16:06:17.805Z,58.13
2018-12-14T16:11:22.321Z,56.40
2018-12-14T16:16:26.866Z,54.43
2018-12-14T16:21:31.429Z,49.63
2018-12-14T16:26:35.940Z,54.10
2018-12-14T16:31:41.493Z,54.53
2018-12-14T16:36:45.989Z,58.93
2018-12-14T16:41:50.582Z,60.27
2018-12-14T16:46:55.102Z,58.17
2018-12-14T16:51:59.657Z,54.80
2018-12-14T16:57:04.212Z,60.17
2018-12-14T17:02:08.700Z,62.87
2018-12-14T17:07:13.253Z,56.87
2018-12-14T17:12:17.819Z,60.20
2018-12-14T17:17:22.354Z,64.27
2018-12-14T17:22:26.905Z,70.83
2018-12-14T17:27:31.533Z,59.87
2018-12-14T17:32:36.053Z,59.47
2018-12-14T17:37:40.633Z,60.67
2018-12-14T17:42:45.141Z,63.57
2018-12-14T17:47:49.690Z,69.50
2018-12-14T17:52:54.218Z,68.60
2018-12-14T17:57:58.721Z,80.20
2018-12-14T18:03:03.228Z,76.47
2018-12-14T18:08:07.745Z,68.43
2018-12-14T18:13:12.238Z,76.93
2018-12-14T18:18:16.746Z,74.67
2018-12-14T18:23:21.241Z,97.30
2018-12-14T18:28:25.753Z,60.37
2018-12-14T18:33:30.249Z,72.20
2018-12-14T18:38:34.738Z,65.30
2018-12-14T18:43:39.285Z,69.17
2018-12-14T18:48:43.833Z,61.63
2018-12-14T18:53:50.428Z,59.83
2018-12-14T18:58:54.923Z,65.43
2018-12-14T19:03:59.413Z,69.50
2018-12-14T19:09:03.949Z,58.77
2018-12-14T19:14:08.462Z,64.33
2018-12-14T19:19:12.969Z,60.77
2018-12-14T19:24:17.481Z,61.00
2018-12-14T19:29:21.990Z,57.30
2018-12-14T19:34:31.379Z,62.03
2018-12-14T19:39:31.074Z,60.17
2018-12-14T19:44:35.681Z,62.47
2018-12-14T19:49:40.339Z,60.73
2018-12-14T19:54:44.891Z,58.53
2018-12-14T19:59:49.454Z,58.27
2018-12-14T20:04:54.065Z,58.90
2018-12-14T20:09:58.616Z,55.67
2018-12-14T20:15:03.238Z,55.17
2018-12-14T20:20:08.517Z,54.07
2018-12-14T20:25:13.370Z,52.03
2018-12-14T20:30:18.238Z,54.73
2018-12-14T20:35:23.037Z,55.87
2018-12-14T20:40:27.663Z,57.00
2018-12-14T20:45:32.374Z,53.23
2018-12-14T20:50:37.085Z,49.20
2018-12-14T20:55:41.761Z,53.07
2018-12-14T21:00:46.757Z,44.57
2018-12-14T21:05:51.305Z,48.47
2018-12-14T21:10:55.826Z,49.13
2018-12-14T21:16:00.354Z,48.10
2018-12-14T21:21:04.893Z,45.70
2018-12-14T21:26:09.445Z,43.43
2018-12-14T21:31:13.978Z,44.77
2018-12-14T21:36:18.482Z,44.63
2018-12-14T21:41:23.022Z,40.77
2018-12-14T21:46:32.610Z,47.93
2018-12-14T21:51:32.114Z,39.97
2018-12-14T21:56:36.626Z,37.40
2018-12-14T22:01:42.348Z,44.27
2018-12-14T22:06:46.910Z,35.17
2018-12-14T22:11:52.126Z,37.80
2018-12-14T22:16:56.633Z,42.40
2018-12-14T22:22:01.218Z,36.67
2018-12-14T22:27:05.757Z,40.53
2018-12-14T22:32:10.297Z,39.33
2018-12-14T22:37:14.817Z,38.33
2018-12-14T22:42:19.368Z,33.73
2018-12-14T22:47:23.926Z,33.90
2018-12-14T22:52:28.457Z,40.17
2018-12-14T22:57:32.974Z,37.43
2018-12-14T23:02:37.557Z,33.33
2018-12-14T23:07:42.163Z,35.47
2018-12-14T23:12:46.657Z,30.50
2018-12-14T23:17:51.165Z,34.00
2018-12-14T23:22:55.705Z,29.67
2018-12-14T23:28:00.225Z,28.60
2018-12-14T23:33:04.727Z,29.90
2018-12-14T23:38:09.262Z,22.57
2018-12-14T23:43:13.773Z,26.27
2018-12-14T23:48:20.102Z,25.17
2018-12-14T23:53:24.626Z,28.67
2018-12-14T23:58:29.143Z,27.67
